createdAt,value
2023-05-14T00:05:34.957Z,85.50
2023-05-14T00:08:07.734Z,85.51
2023-05-14T00:10:36.242Z,85.69
2023-05-14T00:15:46.480Z,85.80
2023-05-14T00:21:06.289Z,84.81
2023-05-14T00:23:38.423Z,85.43
2023-05-14T00:45:26.365Z,86.46
2023-05-14T00:47:57.182Z,86.73
2023-05-14T00:59:25.991Z,86.34
2023-05-14T01:38:53.343Z,84.56
2023-05-14T01:47:43.232Z,83.02
2023-05-14T02:33:54.400Z,87.12
2023-05-14T02:36:27.736Z,87.09
2023-05-14T02:38:56.505Z,86.66
2023-05-14T02:41:25.023Z,86.66
2023-05-14T02:43:54.814Z,86.53
2023-05-14T02:46:23.915Z,86.72
2023-05-14T02:48:53.776Z,87.66
2023-05-14T02:51:23.823Z,88.31
2023-05-14T02:53:55.103Z,88.33
2023-05-14T02:56:23.976Z,88.80
2023-05-14T02:58:54.514Z,89.84
2023-05-14T03:01:23.936Z,91.32
2023-05-14T03:03:54.758Z,92.45
2023-05-14T03:06:23.383Z,93.52
2023-05-14T03:08:55.304Z,93.97
2023-05-14T03:11:23.963Z,95.03
2023-05-14T03:13:54.215Z,95.71
2023-05-14T03:19:14.146Z,95.04
2023-05-14T03:21:43.564Z,94.47
2023-05-14T03:24:27.161Z,93.73
2023-05-14T03:29:55.452Z,92.46
2023-05-14T03:32:24.281Z,92.20
2023-05-14T03:34:53.858Z,91.67
2023-05-14T03:37:23.546Z,92.37
2023-05-14T03:39:55.426Z,93.44
2023-05-14T03:42:24.087Z,94.18
2023-05-14T03:48:01.997Z,94.69
2023-05-14T03:50:32.655Z,95.40
2023-05-14T03:53:02.750Z,95.87
2023-05-14T03:55:34.219Z,96.26
2023-05-14T04:02:13.389Z,96.81
2023-05-14T04:05:52.564Z,97.61
2023-05-14T04:12:52.594Z,98.64
2023-05-14T04:25:24.352Z,98.03
2023-05-14T04:28:34.250Z,97.99
2023-05-14T04:31:05.714Z,97.88
2023-05-14T04:33:34.260Z,97.38
2023-05-14T04:36:05.735Z,97.42
2023-05-14T04:38:34.157Z,97.39
2023-05-14T04:41:05.542Z,96.90
2023-05-14T04:43:33.862Z,95.46
2023-05-14T08:10:08.006Z,95.89
2023-05-14T08:12:35.668Z,97.07
2023-05-14T08:15:03.625Z,97.62
2023-05-14T08:17:31.650Z,98.52
2023-05-14T08:19:59.797Z,99.10
2023-05-14T08:22:27.804Z,97.33
2023-05-14T08:24:55.656Z,97.42
2023-05-14T08:27:23.288Z,96.74
2023-05-14T08:29:51.707Z,96.93
2023-05-14T08:32:23.194Z,97.60
2023-05-14T08:34:52.678Z,96.65
2023-05-14T08:37:20.331Z,96.42
2023-05-14T08:39:48.222Z,95.80
2023-05-14T08:42:15.755Z,95.78
2023-05-14T08:44:52.619Z,96.32
2023-05-14T08:47:21.420Z,94.75
2023-05-14T09:00:31.688Z,94.54
2023-05-14T09:03:07.853Z,95.50
2023-05-14T09:06:06.994Z,95.11
2023-05-14T09:11:25.637Z,92.77
2023-05-14T09:13:58.621Z,94.43
2023-05-14T09:16:27.851Z,94.44
2023-05-14T09:18:55.005Z,94.03
2023-05-14T09:21:23.460Z,94.40
2023-05-14T09:23:55.047Z,95.24
2023-05-14T09:26:26.113Z,94.84
2023-05-14T09:33:18.375Z,92.97
2023-05-14T09:47:33.239Z,94.58
2023-05-14T09:50:01.569Z,95.30
2023-05-14T09:52:29.054Z,95.31
2023-05-14T09:55:00.547Z,93.91
2023-05-14T09:57:27.709Z,93.40
2023-05-14T09:59:55.203Z,93.17
2023-05-14T10:02:26.193Z,92.42
2023-05-14T10:04:59.738Z,95.42
2023-05-14T10:07:49.674Z,91.43
2023-05-14T10:10:19.681Z,91.04
2023-05-14T10:12:59.285Z,90.25
2023-05-14T10:15:30.348Z,90.68
2023-05-14T10:17:59.827Z,88.54
2023-05-14T10:20:27.814Z,87.95
2023-05-14T10:22:55.050Z,85.24
2023-05-14T10:25:22.519Z,85.13
2023-05-14T10:27:50.969Z,83.55
2023-05-14T10:30:18.660Z,83.99
2023-05-14T10:32:47.098Z,81.22
2023-05-14T10:35:21.002Z,80.22
2023-05-14T10:37:48.163Z,77.88
2023-05-14T10:40:19.328Z,79.03
2023-05-14T10:42:47.396Z,79.43
2023-05-14T10:45:15.313Z,79.71
2023-05-14T10:47:49.371Z,79.89
2023-05-14T10:50:17.731Z,77.09
2023-05-14T10:52:44.995Z,78.18
2023-05-14T10:55:21.515Z,77.95
2023-05-14T10:57:49.047Z,80.46
2023-05-14T11:00:18.865Z,79.26
2023-05-14T11:55:24.801Z,62.16
2023-05-14T11:58:07.886Z,65.60
2023-05-14T12:05:36.074Z,70.19
2023-05-14T12:19:15.358Z,67.90
2023-05-14T12:25:06.924Z,65.54
2023-05-14T12:30:39.818Z,63.14
2023-05-14T12:36:00.539Z,60.96
2023-05-14T12:38:37.142Z,62.21
2023-05-14T12:44:33.673Z,62.28
2023-05-14T12:57:39.911Z,63.16
2023-05-14T13:40:56.659Z,70.45
2023-05-14T13:43:26.118Z,68.98
2023-05-14T13:45:54.101Z,69.53
2023-05-14T13:48:22.515Z,69.43
2023-05-14T13:53:58.704Z,67.88
2023-05-14T13:56:26.204Z,69.04
2023-05-14T13:59:14.026Z,69.62
2023-05-14T14:01:48.112Z,68.37
2023-05-14T14:04:16.506Z,69.13
2023-05-14T14:06:44.136Z,67.72
2023-05-14T14:09:18.575Z,67.12
2023-05-14T14:11:46.619Z,66.81
2023-05-14T14:14:14.180Z,66.99
2023-05-14T14:16:42.131Z,67.26
2023-05-14T14:19:18.793Z,68.45
2023-05-14T14:21:46.315Z,69.74
2023-05-14T14:24:14.176Z,66.05
2023-05-14T14:26:42.025Z,66.24
2023-05-14T14:29:10.605Z,66.91
2023-05-14T14:31:38.583Z,66.64
2023-05-14T14:34:06.213Z,70.24
2023-05-14T14:36:34.071Z,71.48
2023-05-14T14:39:31.953Z,73.64
2023-05-14T14:41:59.851Z,76.00
2023-05-14T14:44:27.708Z,76.26
2023-05-14T14:46:55.845Z,76.28
2023-05-14T14:49:23.777Z,76.50
2023-05-14T17:27:43.263Z,91.41
2023-05-14T17:35:43.933Z,90.96
2023-05-14T19:39:12.489Z,100.00
2023-05-14T19:45:04.383Z,100.00
2023-05-14T19:57:11.998Z,100.00
2023-05-14T19:59:42.609Z,100.00
2023-05-14T20:02:31.191Z,100.00
2023-05-14T20:05:02.661Z,100.00
2023-05-14T20:07:31.187Z,100.00
2023-05-14T20:10:02.578Z,100.00
2023-05-14T20:12:30.903Z,100.00
2023-05-14T20:15:22.520Z,100.00
2023-05-14T20:17:52.756Z,100.00
2023-05-14T20:20:21.338Z,100.00
2023-05-14T20:32:31.535Z,100.00
2023-05-14T20:35:02.351Z,100.00
2023-05-14T20:37:42.764Z,100.00
2023-05-14T21:05:14.172Z,100.00
